Time;durP1;ratioP1;P1;durP2;ratioP2;P2;SDS_P1;SDS_P2;PMS_P1;PMS_P2;Temp;Humidity;BMP_temperature;BMP_pressure;BME280_temperature;BME280_humidity;BME280_pressure;Samples;Min_cycle;Max_cycle;Signal;HPM_P1;HPM_P2
2023/09/01 00:00:41;;;;;;;8.38;5.10;;;14.80;1.00;;;;;;4991724;28;20199;-82
2023/09/01 00:03:29;;;;;;;9.50;4.68;;;14.70;1.90;;;;;;4989474;28;20196;-82
2023/09/01 00:05:58;;;;;;;7.97;4.82;;;14.70;1.00;;;;;;4997780;28;20713;-82
2023/09/01 00:08:26;;;;;;;8.95;4.28;;;14.60;13.10;;;;;;4995288;28;20213;-81
2023/09/01 00:10:53;;;;;;;6.78;4.60;;;14.60;25.90;;;;;;4994153;28;20576;-82
2023/09/01 00:13:21;;;;;;;7.13;4.82;;;14.60;1.00;;;;;;4996595;28;20203;-82
2023/09/01 00:15:48;;;;;;;9.65;4.65;;;14.60;1.00;;;;;;4993579;28;20228;-82
2023/09/01 00:18:15;;;;;;;8.35;4.35;;;14.70;1.00;;;;;;5004523;28;20203;-82
2023/09/01 00:20:44;;;;;;;10.13;4.85;;;14.70;1.00;;;;;;4985381;28;20208;-82
2023/09/01 00:23:11;;;;;;;9.15;4.75;;;14.60;1.00;;;;;;5011911;28;20196;-82
2023/09/01 00:25:39;;;;;;;8.35;5.00;;;14.50;1.00;;;;;;4988311;28;20224;-82
2023/09/01 00:28:06;;;;;;;7.70;4.80;;;14.30;61.70;;;;;;4986627;28;20232;-82
2023/09/01 00:30:50;;;;;;;7.40;4.65;;;14.30;99.90;;;;;;4984845;28;20196;-82
2023/09/01 00:33:17;;;;;;;8.98;4.70;;;14.30;99.90;;;;;;5006180;28;20213;-82
2023/09/01 00:35:46;;;;;;;7.20;4.70;;;14.50;99.90;;;;;;4990883;28;20563;-82
2023/09/01 00:38:14;;;;;;;7.32;4.68;;;14.60;99.90;;;;;;4984169;28;20199;-82
2023/09/01 00:40:41;;;;;;;7.65;4.57;;;14.60;1.00;;;;;;4993656;28;20205;-82
2023/09/01 00:43:08;;;;;;;7.90;4.55;;;14.50;1.00;;;;;;4995853;28;20207;-82
2023/09/01 00:45:36;;;;;;;7.90;5.10;;;14.50;99.90;;;;;;4990596;28;20587;-82
2023/09/01 00:48:05;;;;;;;8.40;5.53;;;14.30;99.90;;;;;;4999508;28;20558;-82
2023/09/01 00:50:33;;;;;;;7.43;4.68;;;14.20;99.90;;;;;;4984225;28;20646;-83
2023/09/01 00:53:04;;;;;;;5.68;4.53;;;14.20;99.90;;;;;;5006630;28;20578;-83
2023/09/01 00:55:32;;;;;;;5.53;4.60;;;14.20;99.90;;;;;;5005546;28;20224;-83
2023/09/01 00:58:02;;;;;;;4.72;4.20;;;14.10;99.90;;;;;;4995106;28;20200;-82
2023/09/01 01:00:31;;;;;;;5.07;4.15;;;14.10;99.90;;;;;;4989136;28;20217;-82
2023/09/01 01:03:00;;;;;;;9.27;4.57;;;14.10;99.90;;;;;;4991926;28;20197;-83
2023/09/01 01:05:36;;;;;;;7.50;4.80;;;14.20;99.90;;;;;;4985279;28;20216;-83
2023/09/01 01:08:13;;;;;;;5.82;4.32;;;14.30;99.90;;;;;;4997531;28;20220;-83
2023/09/01 01:10:50;;;;;;;7.55;4.53;;;14.30;99.90;;;;;;4999860;28;20196;-83
2023/09/01 01:13:20;;;;;;;5.95;4.50;;;14.20;99.90;;;;;;4977164;28;20654;-83
2023/09/01 01:15:51;;;;;;;9.27;4.90;;;14.10;97.30;;;;;;4992849;28;20597;-83
2023/09/01 01:18:19;;;;;;;8.27;5.03;;;14.10;99.90;;;;;;5001770;28;20189;-83
2023/09/01 01:20:54;;;;;;;7.47;5.05;;;14.10;99.90;;;;;;5016510;28;20212;-83
2023/09/01 01:23:23;;;;;;;7.35;4.28;;;14.10;99.90;;;;;;4999988;28;20205;-83
2023/09/01 01:25:52;;;;;;;7.22;4.45;;;14.10;99.90;;;;;;5017331;28;20247;-83
2023/09/01 01:28:20;;;;;;;7.78;4.60;;;14.10;99.90;;;;;;4997662;28;20223;-82
2023/09/01 01:30:49;;;;;;;12.10;5.57;;;14.10;99.90;;;;;;4991848;28;20203;-82
2023/09/01 01:33:28;;;;;;;10.00;5.22;;;14.00;99.90;;;;;;5002764;28;20204;-82
2023/09/01 01:36:07;;;;;;;5.90;4.20;;;14.10;97.70;;;;;;4988291;28;20236;-82
2023/09/01 01:38:39;;;;;;;7.20;4.35;;;14.00;12.80;;;;;;4986805;28;20212;-81
2023/09/01 01:41:10;;;;;;;6.55;4.30;;;13.90;1.00;;;;;;4997414;28;20223;-83
2023/09/01 01:43:40;;;;;;;7.60;4.25;;;13.90;93.90;;;;;;5008207;28;20655;-83
2023/09/01 01:46:08;;;;;;;11.00;4.88;;;13.90;99.90;;;;;;4996471;28;20228;-83
2023/09/01 01:48:38;;;;;;;6.97;4.53;;;14.00;91.50;;;;;;4973818;28;20907;-83
2023/09/01 01:51:06;;;;;;;6.45;4.38;;;14.00;87.70;;;;;;4997766;28;20204;-83
2023/09/01 01:53:35;;;;;;;7.47;4.75;;;14.10;1.00;;;;;;5000053;28;20204;-83
2023/09/01 01:56:03;;;;;;;9.07;4.47;;;14.00;1.00;;;;;;4974896;28;20239;-82
2023/09/01 01:58:31;;;;;;;5.70;4.43;;;14.00;1.00;;;;;;4988557;28;20199;-82
2023/09/01 02:00:59;;;;;;;6.32;4.10;;;14.00;1.00;;;;;;4998761;28;20710;-82
2023/09/01 02:03:26;;;;;;;7.57;4.45;;;14.10;1.00;;;;;;4993028;28;20207;-83
2023/09/01 02:05:54;;;;;;;11.65;5.03;;;14.10;1.00;;;;;;4987363;28;20220;-82
2023/09/01 02:08:21;;;;;;;7.75;4.25;;;14.00;1.00;;;;;;4976602;28;20217;-82
2023/09/01 02:10:50;;;;;;;8.13;4.05;;;13.90;1.00;;;;;;5004021;28;20207;-82
2023/09/01 02:13:17;;;;;;;7.68;4.72;;;13.90;1.00;;;;;;4989475;28;21300;-82
2023/09/01 02:15:51;;;;;;;4.80;4.30;;;13.90;1.00;;;;;;4995020;28;20257;-82
2023/09/01 02:18:19;;;;;;;6.25;4.63;;;13.80;70.40;;;;;;4992977;28;20207;-82
2023/09/01 02:20:47;;;;;;;5.68;4.40;;;13.80;69.90;;;;;;5001270;28;20206;-82
2023/09/01 02:23:17;;;;;;;7.30;4.53;;;13.90;34.70;;;;;;5003176;28;20646;-82
2023/09/01 02:25:45;;;;;;;6.85;4.65;;;13.80;80.30;;;;;;5009323;28;20219;-82
2023/09/01 02:28:14;;;;;;;6.43;3.97;;;13.70;99.90;;;;;;4993161;28;20202;-82
2023/09/01 02:30:42;;;;;;;10.32;4.40;;;13.70;99.90;;;;;;4988945;28;20684;-82
2023/09/01 02:33:09;;;;;;;5.97;4.25;;;13.70;99.90;;;;;;5003745;28;20197;-82
2023/09/01 02:36:22;;;;;;;5.38;4.18;;;13.70;99.90;;;;;;5108169;27;21262;-81
2023/09/01 02:38:49;;;;;;;6.82;4.93;;;13.60;99.90;;;;;;5086354;28;20209;-81
2023/09/01 02:41:17;;;;;;;6.53;4.85;;;13.60;99.90;;;;;;5079997;28;20202;-81
2023/09/01 02:43:44;;;;;;;9.43;4.85;;;13.60;99.90;;;;;;5089983;28;20207;-81
2023/09/01 02:46:12;;;;;;;6.70;4.82;;;13.60;99.90;;;;;;5075239;28;20220;-81
2023/09/01 02:48:39;;;;;;;9.02;5.15;;;13.70;99.90;;;;;;5078687;28;20205;-81
2023/09/01 02:51:09;;;;;;;8.60;5.32;;;13.70;99.90;;;;;;5074822;28;20196;-81
2023/09/01 02:53:37;;;;;;;6.75;5.10;;;13.80;99.90;;;;;;5074656;28;20201;-81
2023/09/01 02:56:05;;;;;;;7.80;5.25;;;13.80;99.90;;;;;;5087239;28;20213;-81
2023/09/01 02:58:33;;;;;;;7.28;5.45;;;13.70;99.90;;;;;;5087254;28;20193;-81
2023/09/01 03:01:07;;;;;;;8.88;5.63;;;13.70;99.90;;;;;;5072678;28;20205;-81
2023/09/01 03:03:36;;;;;;;7.70;4.90;;;13.70;99.90;;;;;;5084067;28;20193;-81
2023/09/01 03:06:05;;;;;;;5.95;4.72;;;13.70;99.90;;;;;;5084993;28;20228;-81
2023/09/01 03:08:34;;;;;;;8.38;5.55;;;13.70;99.90;;;;;;5077310;28;20198;-81
2023/09/01 03:11:03;;;;;;;6.78;5.57;;;13.80;99.90;;;;;;5086816;28;20204;-82
2023/09/01 03:13:30;;;;;;;7.78;5.30;;;13.80;99.90;;;;;;5088706;28;20201;-82
2023/09/01 03:15:58;;;;;;;6.63;5.40;;;13.80;99.90;;;;;;5082688;28;20578;-82
2023/09/01 03:18:26;;;;;;;6.30;4.85;;;13.90;99.90;;;;;;5088271;28;20538;-82
2023/09/01 03:20:55;;;;;;;8.15;5.15;;;14.00;99.90;;;;;;5087267;28;20190;-81
2023/09/01 03:23:23;;;;;;;5.43;4.93;;;13.90;99.90;;;;;;5088027;28;20585;-83
2023/09/01 03:25:56;;;;;;;6.60;5.18;;;13.90;99.90;;;;;;5082805;28;20217;-81
2023/09/01 03:28:25;;;;;;;7.07;5.35;;;13.90;99.90;;;;;;5072839;28;20196;-81
2023/09/01 03:30:52;;;;;;;7.00;5.00;;;13.90;99.90;;;;;;5077893;28;20194;-81
2023/09/01 03:33:22;;;;;;;7.40;6.05;;;14.00;99.90;;;;;;5076700;28;20197;-81
2023/09/01 03:35:49;;;;;;;5.88;5.15;;;13.90;99.90;;;;;;5083997;28;20221;-81
2023/09/01 03:38:17;;;;;;;5.50;4.80;;;13.90;99.90;;;;;;5078524;28;20201;-81
2023/09/01 03:40:44;;;;;;;6.43;5.18;;;13.80;99.90;;;;;;5081725;28;20544;-81
2023/09/01 03:43:13;;;;;;;7.45;5.32;;;13.90;99.90;;;;;;5073360;28;20216;-81
2023/09/01 03:45:43;;;;;;;7.05;5.22;;;14.00;99.90;;;;;;5070002;28;20225;-81
2023/09/01 03:48:10;;;;;;;7.13;4.97;;;13.90;99.90;;;;;;5063774;28;20189;-81
2023/09/01 03:51:21;;;;;;;9.35;5.32;;;13.90;99.90;;;;;;5058497;28;20198;-81
2023/09/01 03:53:49;;;;;;;8.20;5.70;;;14.00;99.90;;;;;;5059811;28;20198;-81
2023/09/01 03:56:19;;;;;;;9.15;5.70;;;14.00;99.90;;;;;;5063769;28;20232;-81
2023/09/01 03:58:48;;;;;;;8.43;5.07;;;14.00;99.90;;;;;;5064869;28;20194;-81
2023/09/01 04:01:16;;;;;;;10.73;5.22;;;14.00;99.90;;;;;;5064831;28;20205;-81
2023/09/01 04:03:46;;;;;;;8.75;5.05;;;14.00;99.90;;;;;;5070949;28;20205;-81
2023/09/01 04:06:15;;;;;;;6.78;4.50;;;14.00;99.90;;;;;;5053745;28;20222;-81
2023/09/01 04:08:42;;;;;;;7.43;4.85;;;14.10;99.90;;;;;;5069777;28;20655;-81
2023/09/01 04:11:10;;;;;;;6.07;4.60;;;14.10;99.90;;;;;;5064484;28;20689;-82
2023/09/01 04:13:38;;;;;;;6.55;4.65;;;14.00;99.90;;;;;;5070223;28;20648;-81
2023/09/01 04:16:07;;;;;;;5.00;4.57;;;14.00;99.90;;;;;;5061655;28;20229;-81
2023/09/01 04:18:35;;;;;;;8.23;5.47;;;14.00;99.90;;;;;;5062844;28;20201;-81
2023/09/01 04:21:03;;;;;;;5.97;4.97;;;14.00;99.90;;;;;;5066268;28;20193;-81
2023/09/01 04:23:31;;;;;;;5.20;4.68;;;14.00;99.90;;;;;;5067378;28;20197;-81
2023/09/01 04:26:00;;;;;;;5.30;4.40;;;13.90;99.90;;;;;;5063651;28;20239;-81
2023/09/01 04:28:29;;;;;;;7.70;4.85;;;13.90;99.90;;;;;;5058493;28;20205;-81
2023/09/01 04:30:59;;;;;;;7.57;4.68;;;13.90;99.90;;;;;;5058039;28;20216;-81
2023/09/01 04:33:28;;;;;;;9.35;4.80;;;14.00;99.90;;;;;;5062156;28;20194;-81
2023/09/01 04:35:57;;;;;;;10.75;5.47;;;14.00;99.90;;;;;;5057857;28;20221;-82
2023/09/01 04:38:25;;;;;;;5.97;4.80;;;14.00;99.90;;;;;;5056054;28;20212;-82
2023/09/01 04:40:56;;;;;;;7.78;5.43;;;14.10;99.90;;;;;;5062599;28;20220;-81
2023/09/01 04:43:25;;;;;;;9.57;5.30;;;14.20;99.90;;;;;;5058860;28;20197;-81
2023/09/01 04:45:53;;;;;;;5.70;5.00;;;14.30;99.90;;;;;;5063504;28;20590;-81
2023/09/01 04:48:20;;;;;;;5.55;4.55;;;14.30;99.90;;;;;;5057635;28;20209;-82
2023/09/01 04:50:49;;;;;;;7.40;5.05;;;14.40;99.90;;;;;;5060321;28;20672;-82
2023/09/01 04:53:17;;;;;;;6.53;4.50;;;14.40;99.90;;;;;;5064931;28;20221;-83
2023/09/01 04:55:45;;;;;;;9.88;4.85;;;14.70;99.90;;;;;;5063405;28;20713;-82
2023/09/01 04:58:20;;;;;;;6.78;4.50;;;15.40;99.90;;;;;;5065049;28;20232;-82
2023/09/01 05:00:47;;;;;;;9.27;4.43;;;15.70;91.90;;;;;;5059984;28;20689;-82
2023/09/01 05:03:15;;;;;;;6.72;5.30;;;15.80;1.00;;;;;;5065919;28;20205;-83
2023/09/01 05:05:42;;;;;;;9.48;7.43;;;15.60;99.90;;;;;;5059595;28;20229;-84
2023/09/01 05:08:11;;;;;;;8.38;5.57;;;15.70;1.00;;;;;;5058824;28;20209;-86
2023/09/01 05:10:39;;;;;;;10.77;6.68;;;15.30;1.00;;;;;;5066590;28;20205;-86
2023/09/01 05:13:26;;;;;;;7.45;5.70;;;15.80;1.00;;;;;;5064151;28;20197;-87
2023/09/01 05:15:54;;;;;;;7.80;5.07;;;16.10;99.90;;;;;;5065534;28;20233;-85
2023/09/01 05:18:21;;;;;;;6.20;4.57;;;16.10;10.20;;;;;;5067394;28;20216;-84
2023/09/01 05:20:54;;;;;;;7.15;4.88;;;15.60;99.90;;;;;;5065352;28;20205;-86
2023/09/01 05:23:25;;;;;;;6.43;4.45;;;15.90;1.00;;;;;;5059509;28;20209;-84
2023/09/01 05:25:53;;;;;;;5.25;4.75;;;15.80;99.90;;;;;;5059192;28;20968;-82
2023/09/01 05:28:20;;;;;;;7.60;4.47;;;16.00;99.90;;;;;;5058439;28;20202;-84
2023/09/01 05:30:51;;;;;;;5.30;4.43;;;16.10;99.90;;;;;;5057262;28;20662;-83
2023/09/01 05:33:19;;;;;;;5.20;4.03;;;16.20;99.90;;;;;;5067346;28;20205;-82
2023/09/01 05:35:46;;;;;;;5.07;4.25;;;16.30;99.90;;;;;;5073425;28;20225;-83
2023/09/01 05:38:14;;;;;;;6.57;4.25;;;16.40;4.70;;;;;;5077180;28;20201;-83
2023/09/01 05:40:43;;;;;;;50.45;19.88;;;16.40;1.00;;;;;;5055264;28;20218;-84
2023/09/01 05:43:17;;;;;;;34.05;13.43;;;16.50;1.00;;;;;;5063551;28;20205;-81
2023/09/01 05:45:44;;;;;;;17.90;8.25;;;16.50;1.00;;;;;;5057796;28;20233;-80
2023/09/01 05:48:14;;;;;;;13.40;6.57;;;16.60;1.00;;;;;;5059633;28;20194;-86
2023/09/01 05:50:42;;;;;;;10.35;5.90;;;16.60;99.90;;;;;;5066379;28;20213;-84
2023/09/01 05:53:11;;;;;;;9.85;5.13;;;16.60;99.90;;;;;;5061737;28;20684;-87
2023/09/01 05:55:38;;;;;;;8.43;5.50;;;16.40;1.00;;;;;;5061484;28;20225;-85
2023/09/01 05:58:07;;;;;;;9.40;5.95;;;16.30;99.90;;;;;;5057736;28;20198;-87
2023/09/01 06:00:35;;;;;;;7.22;5.10;;;16.30;99.90;;;;;;5052551;28;20575;-84
2023/09/01 06:03:03;;;;;;;16.15;7.95;;;15.70;99.90;;;;;;5061916;28;20203;-84
2023/09/01 06:05:31;;;;;;;9.77;5.72;;;15.30;1.00;;;;;;5055894;28;20724;-86
2023/09/01 06:08:04;;;;;;;8.32;5.50;;;15.20;99.90;;;;;;5054849;28;20217;-84
2023/09/01 06:10:32;;;;;;;7.30;5.55;;;15.00;99.90;;;;;;5070037;28;20198;-83
2023/09/01 06:12:59;;;;;;;8.15;5.82;;;15.00;99.90;;;;;;5061833;28;20659;-85
2023/09/01 06:15:28;;;;;;;6.20;5.28;;;15.10;99.90;;;;;;5060451;28;20619;-84
2023/09/01 06:17:55;;;;;;;6.60;5.25;;;15.10;99.90;;;;;;5061873;28;20225;-83
2023/09/01 06:20:23;;;;;;;7.68;5.80;;;15.30;99.90;;;;;;5058254;28;20209;-83
2023/09/01 06:22:55;;;;;;;6.20;5.10;;;15.70;99.90;;;;;;5061146;28;20210;-82
2023/09/01 06:25:24;;;;;;;7.80;5.00;;;15.40;99.90;;;;;;5058136;28;20198;-86
2023/09/01 06:27:51;;;;;;;7.57;5.40;;;15.30;99.90;;;;;;5063036;28;20202;-82
2023/09/01 06:30:19;;;;;;;9.40;5.82;;;15.30;99.90;;;;;;5054219;28;20202;-83
2023/09/01 06:32:48;;;;;;;9.00;5.63;;;15.30;99.90;;;;;;5074351;28;20197;-82
2023/09/01 06:35:15;;;;;;;7.78;5.55;;;15.30;99.90;;;;;;5049465;28;20213;-82
2023/09/01 06:37:42;;;;;;;6.85;5.53;;;15.30;99.90;;;;;;5052322;28;20202;-82
2023/09/01 06:40:11;;;;;;;8.32;4.95;;;15.40;99.90;;;;;;5068904;28;20210;-82
2023/09/01 06:42:38;;;;;;;5.88;5.28;;;15.40;99.90;;;;;;5066149;28;20209;-82
2023/09/01 06:45:07;;;;;;;6.47;4.95;;;15.40;99.90;;;;;;5064912;28;20202;-82
2023/09/01 06:47:34;;;;;;;8.05;5.72;;;15.40;99.90;;;;;;5071946;28;20194;-82
2023/09/01 06:50:04;;;;;;;9.50;5.35;;;15.50;99.90;;;;;;5064861;28;20209;-82
2023/09/01 06:52:31;;;;;;;6.60;5.57;;;15.50;99.90;;;;;;5059377;28;20205;-82
2023/09/01 06:54:59;;;;;;;9.88;6.07;;;15.60;99.90;;;;;;5070616;28;20201;-82
2023/09/01 06:57:27;;;;;;;7.53;5.72;;;15.70;99.90;;;;;;5071387;28;20221;-82
2023/09/01 06:59:55;;;;;;;7.80;6.18;;;15.70;99.90;;;;;;5069442;28;20690;-82
2023/09/01 07:02:22;;;;;;;8.45;6.05;;;15.80;99.90;;;;;;5070724;28;20205;-82
2023/09/01 07:04:50;;;;;;;7.72;6.22;;;15.90;99.90;;;;;;5071774;28;20201;-82
2023/09/01 07:07:18;;;;;;;8.52;5.60;;;15.90;99.90;;;;;;5071034;28;20237;-82
2023/09/01 07:09:46;;;;;;;6.10;5.35;;;15.90;99.90;;;;;;5063164;28;20561;-82
2023/09/01 07:12:13;;;;;;;6.43;5.07;;;15.90;99.90;;;;;;5070582;28;20205;-82
2023/09/01 07:14:41;;;;;;;5.88;5.22;;;16.00;99.90;;;;;;5070508;28;20221;-82
2023/09/01 07:17:11;;;;;;;6.90;5.40;;;16.10;99.90;;;;;;5070034;28;20225;-82
2023/09/01 07:19:39;;;;;;;5.25;4.75;;;16.10;99.90;;;;;;5061809;28;20190;-82
2023/09/01 07:22:06;;;;;;;6.00;5.40;;;16.20;99.90;;;;;;5073238;28;20193;-82
2023/09/01 07:24:35;;;;;;;6.47;4.85;;;16.20;99.90;;;;;;5074458;28;20652;-82
2023/09/01 07:27:03;;;;;;;5.85;4.50;;;16.30;99.90;;;;;;5075165;28;20224;-82
2023/09/01 07:29:30;;;;;;;6.18;4.93;;;16.30;99.90;;;;;;5070941;28;20197;-82
2023/09/01 07:31:59;;;;;;;6.30;4.85;;;16.30;99.90;;;;;;5074323;28;20671;-82
2023/09/01 07:34:27;;;;;;;6.60;5.13;;;16.40;99.90;;;;;;5062568;28;20210;-82
2023/09/01 07:36:54;;;;;;;7.25;4.20;;;16.40;99.90;;;;;;5054585;28;20687;-82
2023/09/01 07:39:22;;;;;;;4.90;4.40;;;16.40;99.90;;;;;;5058364;28;20205;-82
2023/09/01 07:41:51;;;;;;;4.68;4.10;;;16.40;99.90;;;;;;5073512;28;20237;-82
2023/09/01 07:44:20;;;;;;;5.72;4.93;;;16.50;99.90;;;;;;5084632;22;20226;-77
2023/09/01 07:46:47;;;;;;;5.90;4.78;;;16.50;99.90;;;;;;5037049;28;20537;-79
2023/09/01 07:49:14;;;;;;;6.03;4.68;;;16.50;99.90;;;;;;5039344;28;20198;-79
2023/09/01 07:51:42;;;;;;;5.72;4.95;;;16.60;99.90;;;;;;5038787;28;20199;-79
2023/09/01 07:54:10;;;;;;;4.82;4.32;;;16.80;99.90;;;;;;5037395;28;20582;-79
2023/09/01 07:56:37;;;;;;;7.40;4.55;;;16.90;99.90;;;;;;5039990;28;20612;-79
2023/09/01 07:59:06;;;;;;;6.63;4.97;;;16.80;99.90;;;;;;5029147;28;20211;-79
2023/09/01 08:01:34;;;;;;;5.45;4.55;;;16.80;99.90;;;;;;5017581;28;20199;-79
2023/09/01 08:04:01;;;;;;;5.75;4.80;;;16.80;99.90;;;;;;5018784;28;20219;-79
2023/09/01 08:06:29;;;;;;;5.85;4.82;;;16.80;99.90;;;;;;5019200;28;20691;-79
2023/09/01 08:08:57;;;;;;;6.63;4.82;;;16.90;99.90;;;;;;5018866;28;20200;-79
2023/09/01 08:11:24;;;;;;;5.80;5.07;;;16.90;99.90;;;;;;5017962;28;20195;-79
2023/09/01 08:13:52;;;;;;;4.63;4.22;;;17.00;99.90;;;;;;5018589;28;20222;-79
2023/09/01 08:16:21;;;;;;;4.97;4.43;;;16.90;99.90;;;;;;5016452;28;20199;-79
2023/09/01 08:18:48;;;;;;;6.10;4.45;;;16.90;99.90;;;;;;5017859;28;20200;-79
2023/09/01 08:21:15;;;;;;;4.10;3.55;;;16.90;99.90;;;;;;5018135;28;20207;-79
2023/09/01 08:23:43;;;;;;;6.07;4.32;;;17.00;99.90;;;;;;5027389;28;20206;-79
2023/09/01 08:26:10;;;;;;;4.53;3.55;;;17.00;99.90;;;;;;5031735;28;20203;-79
2023/09/01 08:28:37;;;;;;;3.33;3.03;;;17.00;99.90;;;;;;5017683;28;20199;-79
2023/09/01 08:31:06;;;;;;;5.25;2.95;;;16.90;99.90;;;;;;5018013;28;20195;-79
2023/09/01 08:33:36;;;;;;;2.85;2.65;;;16.80;99.90;;;;;;5017896;28;20665;-79
2023/09/01 08:36:04;;;;;;;4.32;3.05;;;16.80;99.90;;;;;;5016409;28;20208;-79
2023/09/01 08:38:31;;;;;;;3.95;3.10;;;16.90;99.90;;;;;;5016363;28;20566;-79
2023/09/01 08:40:59;;;;;;;3.50;2.85;;;17.00;99.90;;;;;;5016627;28;20210;-79
2023/09/01 08:43:28;;;;;;;4.18;3.38;;;17.00;99.90;;;;;;5017984;28;20657;-79
2023/09/01 08:45:56;;;;;;;6.28;4.13;;;17.00;99.90;;;;;;5017617;28;20223;-79
2023/09/01 08:48:24;;;;;;;3.78;2.85;;;17.20;99.90;;;;;;5016750;28;20211;-79
2023/09/01 08:50:54;;;;;;;4.72;3.05;;;17.00;99.90;;;;;;5016225;28;20203;-79
2023/09/01 08:53:22;;;;;;;6.15;3.38;;;17.10;99.90;;;;;;5018375;28;20218;-79
2023/09/01 08:55:50;;;;;;;3.80;3.28;;;17.00;99.90;;;;;;5017821;28;20219;-79
2023/09/01 08:58:18;;;;;;;3.75;2.80;;;17.20;99.90;;;;;;5049109;28;20216;-79
2023/09/01 09:00:45;;;;;;;3.08;2.75;;;17.10;99.90;;;;;;5016771;28;20202;-79
2023/09/01 09:03:13;;;;;;;3.13;2.83;;;17.00;99.90;;;;;;5017756;28;20200;-79
2023/09/01 09:05:41;;;;;;;4.07;3.08;;;17.10;99.90;;;;;;5017696;28;20254;-79
2023/09/01 09:08:10;;;;;;;4.25;2.92;;;17.10;99.90;;;;;;5017490;28;20192;-79
2023/09/01 09:10:39;;;;;;;3.30;2.65;;;17.10;99.90;;;;;;5016002;28;20202;-79
2023/09/01 09:13:22;;;;;;;3.08;2.80;;;17.10;99.90;;;;;;5029845;28;20214;-79
2023/09/01 09:16:08;;;;;;;4.18;2.50;;;17.10;99.90;;;;;;5016304;28;20705;-79
2023/09/01 09:18:36;;;;;;;3.47;2.30;;;17.10;99.90;;;;;;5047427;28;20219;-79
2023/09/01 09:21:03;;;;;;;5.38;2.72;;;17.20;99.90;;;;;;5017506;28;20203;-79
2023/09/01 09:23:43;;;;;;;3.30;3.00;;;17.30;99.90;;;;;;5017726;28;20204;-79
2023/09/01 09:26:11;;;;;;;3.83;3.05;;;17.30;99.90;;;;;;5017145;28;20199;-79
2023/09/01 09:28:38;;;;;;;2.83;2.50;;;17.30;99.90;;;;;;5017541;28;20191;-79
2023/09/01 09:31:06;;;;;;;2.35;2.15;;;17.20;99.90;;;;;;5015669;28;20199;-79
2023/09/01 09:33:35;;;;;;;3.45;2.72;;;17.20;99.90;;;;;;5017439;28;20565;-79
2023/09/01 09:36:04;;;;;;;3.38;2.45;;;17.10;99.90;;;;;;5017136;28;20199;-79
2023/09/01 09:38:43;;;;;;;3.53;2.50;;;17.10;99.90;;;;;;5016207;28;20579;-79
2023/09/01 09:41:11;;;;;;;3.00;2.80;;;17.10;99.90;;;;;;5015317;28;20203;-79
2023/09/01 09:43:46;;;;;;;5.28;3.08;;;17.10;99.90;;;;;;5016297;28;20200;-79
2023/09/01 09:46:14;;;;;;;3.45;3.15;;;17.00;99.90;;;;;;5028207;28;20203;-79
2023/09/01 09:48:42;;;;;;;4.93;2.67;;;17.00;99.90;;;;;;5027913;28;20199;-79
2023/09/01 09:51:11;;;;;;;3.83;3.10;;;17.00;99.90;;;;;;5048596;28;20666;-79
2023/09/01 09:53:40;;;;;;;3.65;2.65;;;17.00;99.90;;;;;;5016663;28;20196;-79
2023/09/01 09:56:19;;;;;;;3.67;3.00;;;17.00;99.90;;;;;;5016168;28;20658;-79
2023/09/01 09:58:48;;;;;;;3.88;2.80;;;17.00;99.90;;;;;;5016827;28;20223;-79
2023/09/01 10:01:19;;;;;;;3.78;3.38;;;17.10;99.90;;;;;;5016170;28;20704;-79
2023/09/01 10:03:48;;;;;;;3.85;3.33;;;17.10;99.90;;;;;;5003333;28;20215;-79
2023/09/01 10:06:17;;;;;;;3.67;2.85;;;17.20;99.90;;;;;;5015391;28;20203;-79
2023/09/01 10:08:45;;;;;;;3.85;2.90;;;17.10;99.90;;;;;;5016350;28;20196;-79
2023/09/01 10:11:17;;;;;;;3.58;3.22;;;17.10;99.90;;;;;;5016378;28;20211;-79
2023/09/01 10:13:46;;;;;;;3.33;2.88;;;17.10;99.90;;;;;;5015927;28;20204;-79
2023/09/01 10:16:14;;;;;;;3.53;2.40;;;17.00;99.90;;;;;;5048994;28;20203;-79
2023/09/01 10:18:43;;;;;;;3.70;2.60;;;16.90;99.90;;;;;;5017672;28;20211;-79
2023/09/01 10:21:13;;;;;;;3.85;3.03;;;16.90;99.90;;;;;;5015493;28;20210;-79
2023/09/01 10:23:41;;;;;;;3.05;2.58;;;16.90;99.90;;;;;;5014708;28;20557;-79
2023/09/01 10:26:24;;;;;;;4.10;2.70;;;16.90;99.90;;;;;;5048075;28;20203;-79
2023/09/01 10:28:57;;;;;;;3.03;2.50;;;16.80;99.90;;;;;;5016320;28;20196;-79
2023/09/01 10:31:24;;;;;;;3.58;2.90;;;16.80;99.90;;;;;;5013940;28;20196;-79
2023/09/01 10:34:06;;;;;;;3.88;3.42;;;16.90;99.90;;;;;;5016179;28;20246;-79
2023/09/01 10:36:33;;;;;;;3.92;3.25;;;17.00;99.90;;;;;;5040155;28;20199;-79
2023/09/01 10:39:30;;;;;;;4.35;3.20;;;16.90;99.90;;;;;;5016492;28;20235;-79
2023/09/01 10:42:00;;;;;;;6.80;3.55;;;17.00;99.90;;;;;;5013827;28;20200;-79
2023/09/01 10:45:11;;;;;;;3.60;3.10;;;16.90;99.90;;;;;;5015843;28;20223;-79
2023/09/01 10:47:52;;;;;;;3.55;3.25;;;17.00;99.90;;;;;;4941152;29;20206;-79
2023/09/01 10:50:20;;;;;;;3.00;2.70;;;17.00;99.90;;;;;;4939155;28;20205;-79
2023/09/01 10:53:29;;;;;;;3.67;2.83;;;16.90;99.90;;;;;;4986862;28;20226;-79
2023/09/01 10:56:10;;;;;;;3.13;2.83;;;16.90;99.90;;;;;;4998462;28;20212;-79
2023/09/01 10:58:50;;;;;;;3.83;3.08;;;17.00;99.90;;;;;;4999876;28;20222;-79
2023/09/01 11:01:32;;;;;;;4.35;3.17;;;17.00;99.90;;;;;;5007590;28;20210;-79
2023/09/01 11:04:29;;;;;;;3.03;2.72;;;17.00;99.90;;;;;;5021105;28;20696;-79
2023/09/01 11:07:15;;;;;;;3.03;2.72;;;17.00;99.90;;;;;;5019075;28;20211;-79
2023/09/01 11:09:58;;;;;;;4.47;2.60;;;17.10;99.90;;;;;;5009940;28;20200;-79
2023/09/01 11:12:31;;;;;;;3.63;2.83;;;17.20;99.90;;;;;;5044634;28;20203;-79
2023/09/01 11:15:05;;;;;;;4.78;2.53;;;17.20;99.90;;;;;;5019460;28;20226;-79
2023/09/01 11:17:48;;;;;;;2.90;2.60;;;17.30;99.90;;;;;;5019746;28;20204;-79
2023/09/01 11:20:19;;;;;;;3.55;2.78;;;17.20;99.90;;;;;;5020465;28;20184;-79
2023/09/01 11:22:47;;;;;;;5.20;2.80;;;17.30;99.90;;;;;;5020231;28;20210;-79
2023/09/01 11:25:16;;;;;;;3.22;2.67;;;17.30;99.90;;;;;;5023553;28;20219;-79
2023/09/01 11:27:49;;;;;;;2.13;1.95;;;17.40;99.90;;;;;;5019487;28;20793;-79
2023/09/01 11:30:20;;;;;;;2.88;1.98;;;17.40;99.90;;;;;;5019190;28;20199;-79
2023/09/01 11:32:48;;;;;;;2.13;1.80;;;17.40;99.90;;;;;;5017821;28;20199;-79
2023/09/01 11:35:27;;;;;;;2.03;1.83;;;17.40;99.90;;;;;;5020602;28;20561;-79
2023/09/01 11:37:55;;;;;;;2.97;1.77;;;17.40;99.90;;;;;;5019306;28;20200;-79
2023/09/01 11:40:24;;;;;;;3.05;1.80;;;17.40;99.90;;;;;;5019357;28;20207;-79
2023/09/01 11:42:52;;;;;;;3.13;1.90;;;17.40;99.90;;;;;;5018998;28;20673;-79
2023/09/01 11:45:21;;;;;;;2.28;1.50;;;17.40;99.90;;;;;;5019073;28;20723;-79
2023/09/01 11:47:52;;;;;;;2.25;1.70;;;17.50;99.90;;;;;;5019739;28;20238;-79
2023/09/01 11:50:20;;;;;;;2.88;1.45;;;17.60;99.90;;;;;;5036169;28;20209;-80
2023/09/01 11:52:52;;;;;;;2.38;1.38;;;17.60;99.90;;;;;;5026829;28;20204;-80
2023/09/01 11:55:34;;;;;;;1.90;1.60;;;17.60;99.90;;;;;;5025904;28;20227;-80
2023/09/01 11:58:02;;;;;;;2.15;1.38;;;17.70;99.90;;;;;;5020232;28;20658;-80
2023/09/01 12:00:32;;;;;;;2.40;1.42;;;17.70;99.90;;;;;;5018246;28;20199;-80
2023/09/01 12:03:03;;;;;;;2.50;1.50;;;17.90;99.90;;;;;;5019418;28;20203;-79
2023/09/01 12:05:35;;;;;;;3.10;1.88;;;17.80;99.90;;;;;;5017697;28;20219;-80
2023/09/01 12:08:04;;;;;;;2.42;1.60;;;17.80;99.90;;;;;;5018248;28;20200;-80
2023/09/01 12:10:32;;;;;;;1.80;1.45;;;17.80;99.90;;;;;;5017622;28;20206;-80
2023/09/01 12:13:11;;;;;;;2.80;1.58;;;17.80;99.90;;;;;;5020078;28;20679;-80
2023/09/01 12:15:59;;;;;;;2.63;1.65;;;17.80;99.90;;;;;;5025877;28;20222;-80
2023/09/01 12:18:28;;;;;;;1.77;1.63;;;17.90;99.90;;;;;;5018194;28;20214;-80
2023/09/01 12:20:55;;;;;;;1.30;1.20;;;17.90;99.90;;;;;;5037970;28;20206;-80
2023/09/01 12:23:30;;;;;;;5.30;1.90;;;17.90;99.90;;;;;;5025938;28;20207;-80
2023/09/01 12:25:58;;;;;;;1.83;1.58;;;18.00;99.90;;;;;;5018216;28;20226;-80
2023/09/01 12:28:27;;;;;;;2.08;1.42;;;18.00;99.90;;;;;;5017777;28;20210;-80
2023/09/01 12:30:55;;;;;;;2.15;1.60;;;18.00;99.90;;;;;;5033043;28;20664;-79
2023/09/01 12:33:24;;;;;;;2.85;1.50;;;18.00;99.90;;;;;;5025968;28;20211;-79
2023/09/01 12:35:52;;;;;;;2.42;1.60;;;17.80;99.90;;;;;;5018190;28;20219;-79
2023/09/01 12:38:20;;;;;;;1.58;1.20;;;18.00;99.90;;;;;;5017838;28;20566;-79
2023/09/01 12:40:48;;;;;;;2.38;1.77;;;18.00;99.90;;;;;;5017704;28;20203;-79
2023/09/01 12:43:16;;;;;;;1.58;1.48;;;18.00;99.90;;;;;;5017837;28;20203;-79
2023/09/01 12:45:44;;;;;;;1.70;1.60;;;18.00;99.90;;;;;;5018058;28;20242;-79
2023/09/01 12:48:12;;;;;;;1.48;1.25;;;18.00;99.90;;;;;;5017911;28;20701;-79
2023/09/01 12:50:45;;;;;;;2.25;1.30;;;17.90;99.90;;;;;;5017712;28;20207;-79
2023/09/01 12:53:12;;;;;;;1.55;1.38;;;18.00;99.90;;;;;;5016781;28;20214;-79
2023/09/01 12:55:39;;;;;;;1.40;1.30;;;18.10;99.90;;;;;;5017934;28;20223;-79
2023/09/01 12:58:08;;;;;;;1.67;1.38;;;18.20;99.90;;;;;;5017261;28;20208;-79
2023/09/01 13:00:36;;;;;;;1.73;1.60;;;18.30;99.90;;;;;;5017426;28;20220;-79
2023/09/01 13:03:04;;;;;;;2.92;1.42;;;18.30;99.90;;;;;;5019356;28;20207;-80